sensor_id;sensor_type;location;lat;lon;timestamp;P1;durP1;ratioP1;P2;durP2;ratioP2
67278;SDS011;54193;53.746;10.058;2023-05-17T00:01:33;11.95;;;2.95;;
67278;SDS011;54193;53.746;10.058;2023-05-17T00:04:19;16.40;;;3.95;;
67278;SDS011;54193;53.746;10.058;2023-05-17T00:07:04;15.65;;;3.70;;
67278;SDS011;54193;53.746;10.058;2023-05-17T00:09:50;19.38;;;3.58;;
67278;SDS011;54193;53.746;10.058;2023-05-17T00:12:35;15.57;;;3.10;;
67278;SDS011;54193;53.746;10.058;2023-05-17T00:15:21;19.27;;;3.08;;
67278;SDS011;54193;53.746;10.058;2023-05-17T00:18:07;20.60;;;4.07;;
67278;SDS011;54193;53.746;10.058;2023-05-17T00:20:52;17.17;;;3.50;;
67278;SDS011;54193;53.746;10.058;2023-05-17T00:23:38;12.80;;;3.22;;
67278;SDS011;54193;53.746;10.058;2023-05-17T00:26:23;14.38;;;3.15;;
67278;SDS011;54193;53.746;10.058;2023-05-17T00:29:09;11.77;;;2.78;;
67278;SDS011;54193;53.746;10.058;2023-05-17T00:31:55;16.63;;;3.20;;
67278;SDS011;54193;53.746;10.058;2023-05-17T00:34:40;13.32;;;2.95;;
67278;SDS011;54193;53.746;10.058;2023-05-17T00:37:26;16.08;;;3.08;;
67278;SDS011;54193;53.746;10.058;2023-05-17T00:40:12;15.77;;;3.13;;
67278;SDS011;54193;53.746;10.058;2023-05-17T00:43:00;10.45;;;2.83;;
67278;SDS011;54193;53.746;10.058;2023-05-17T00:45:45;14.00;;;3.20;;
67278;SDS011;54193;53.746;10.058;2023-05-17T00:48:32;15.40;;;2.77;;
67278;SDS011;54193;53.746;10.058;2023-05-17T00:51:18;15.70;;;3.72;;
67278;SDS011;54193;53.746;10.058;2023-05-17T00:54:05;20.02;;;3.30;;
67278;SDS011;54193;53.746;10.058;2023-05-17T00:56:51;18.48;;;3.53;;
67278;SDS011;54193;53.746;10.058;2023-05-17T00:59:37;12.82;;;2.60;;
67278;SDS011;54193;53.746;10.058;2023-05-17T01:02:23;14.10;;;2.78;;
67278;SDS011;54193;53.746;10.058;2023-05-17T01:05:09;14.93;;;2.80;;
67278;SDS011;54193;53.746;10.058;2023-05-17T01:07:55;16.50;;;3.23;;
67278;SDS011;54193;53.746;10.058;2023-05-17T01:14:43;12.77;;;2.97;;
67278;SDS011;54193;53.746;10.058;2023-05-17T01:17:39;15.60;;;2.63;;
67278;SDS011;54193;53.746;10.058;2023-05-17T01:20:35;10.48;;;2.85;;
67278;SDS011;54193;53.746;10.058;2023-05-17T01:26:37;12.75;;;2.55;;
67278;SDS011;54193;53.746;10.058;2023-05-17T01:29:25;12.02;;;2.45;;
67278;SDS011;54193;53.746;10.058;2023-05-17T01:32:14;14.05;;;2.42;;
67278;SDS011;54193;53.746;10.058;2023-05-17T01:35:02;15.40;;;2.50;;
67278;SDS011;54193;53.746;10.058;2023-05-17T01:37:49;16.93;;;3.43;;
67278;SDS011;54193;53.746;10.058;2023-05-17T01:40:36;18.75;;;2.67;;
67278;SDS011;54193;53.746;10.058;2023-05-17T01:43:30;12.80;;;3.10;;
67278;SDS011;54193;53.746;10.058;2023-05-17T01:46:23;16.40;;;2.90;;
67278;SDS011;54193;53.746;10.058;2023-05-17T01:49:17;13.15;;;2.42;;
67278;SDS011;54193;53.746;10.058;2023-05-17T01:52:08;12.85;;;2.40;;
67278;SDS011;54193;53.746;10.058;2023-05-17T01:55:02;18.10;;;2.90;;
67278;SDS011;54193;53.746;10.058;2023-05-17T01:57:53;10.35;;;2.20;;
67278;SDS011;54193;53.746;10.058;2023-05-17T02:00:41;11.70;;;2.40;;
67278;SDS011;54193;53.746;10.058;2023-05-17T02:03:29;13.57;;;2.67;;
67278;SDS011;54193;53.746;10.058;2023-05-17T02:06:15;13.03;;;2.40;;
67278;SDS011;54193;53.746;10.058;2023-05-17T02:09:01;12.80;;;2.10;;
67278;SDS011;54193;53.746;10.058;2023-05-17T02:11:47;11.77;;;2.28;;
67278;SDS011;54193;53.746;10.058;2023-05-17T02:14:33;13.73;;;2.27;;
67278;SDS011;54193;53.746;10.058;2023-05-17T02:17:18;11.88;;;2.00;;
67278;SDS011;54193;53.746;10.058;2023-05-17T02:20:05;9.57;;;1.70;;
67278;SDS011;54193;53.746;10.058;2023-05-17T02:22:51;9.55;;;2.13;;
67278;SDS011;54193;53.746;10.058;2023-05-17T02:25:37;7.68;;;1.80;;
67278;SDS011;54193;53.746;10.058;2023-05-17T02:28:23;13.05;;;2.00;;
67278;SDS011;54193;53.746;10.058;2023-05-17T02:31:08;4.97;;;1.45;;
67278;SDS011;54193;53.746;10.058;2023-05-17T02:33:54;9.70;;;2.17;;
67278;SDS011;54193;53.746;10.058;2023-05-17T02:36:40;9.35;;;1.98;;
67278;SDS011;54193;53.746;10.058;2023-05-17T02:39:25;10.25;;;1.50;;
67278;SDS011;54193;53.746;10.058;2023-05-17T02:42:11;10.27;;;1.40;;
67278;SDS011;54193;53.746;10.058;2023-05-17T02:44:57;12.75;;;2.00;;
67278;SDS011;54193;53.746;10.058;2023-05-17T02:47:43;12.63;;;1.95;;
67278;SDS011;54193;53.746;10.058;2023-05-17T02:50:28;6.80;;;1.60;;
67278;SDS011;54193;53.746;10.058;2023-05-17T02:53:14;10.02;;;1.80;;
67278;SDS011;54193;53.746;10.058;2023-05-17T02:55:59;6.55;;;1.48;;
67278;SDS011;54193;53.746;10.058;2023-05-17T02:58:45;9.38;;;1.90;;
67278;SDS011;54193;53.746;10.058;2023-05-17T03:01:31;10.47;;;1.70;;
67278;SDS011;54193;53.746;10.058;2023-05-17T03:04:16;18.17;;;2.00;;
67278;SDS011;54193;53.746;10.058;2023-05-17T03:07:04;10.73;;;2.00;;
67278;SDS011;54193;53.746;10.058;2023-05-17T03:09:50;8.80;;;1.73;;
67278;SDS011;54193;53.746;10.058;2023-05-17T03:12:36;10.23;;;1.50;;
67278;SDS011;54193;53.746;10.058;2023-05-17T03:15:21;7.97;;;1.75;;
67278;SDS011;54193;53.746;10.058;2023-05-17T03:18:07;11.77;;;1.92;;
67278;SDS011;54193;53.746;10.058;2023-05-17T03:20:53;12.32;;;1.95;;
67278;SDS011;54193;53.746;10.058;2023-05-17T03:23:39;9.20;;;1.65;;
67278;SDS011;54193;53.746;10.058;2023-05-17T03:26:24;10.35;;;1.50;;
67278;SDS011;54193;53.746;10.058;2023-05-17T03:29:11;10.53;;;1.90;;
67278;SDS011;54193;53.746;10.058;2023-05-17T03:31:57;11.90;;;2.05;;
67278;SDS011;54193;53.746;10.058;2023-05-17T03:34:43;13.88;;;1.80;;
67278;SDS011;54193;53.746;10.058;2023-05-17T03:37:28;10.33;;;1.80;;
67278;SDS011;54193;53.746;10.058;2023-05-17T03:40:14;6.60;;;1.40;;
67278;SDS011;54193;53.746;10.058;2023-05-17T03:43:00;11.23;;;2.00;;
67278;SDS011;54193;53.746;10.058;2023-05-17T03:45:45;10.50;;;1.75;;
67278;SDS011;54193;53.746;10.058;2023-05-17T03:48:31;8.57;;;1.50;;
67278;SDS011;54193;53.746;10.058;2023-05-17T03:51:17;10.15;;;1.30;;
67278;SDS011;54193;53.746;10.058;2023-05-17T03:54:03;12.18;;;1.90;;
67278;SDS011;54193;53.746;10.058;2023-05-17T03:56:48;12.37;;;1.57;;
67278;SDS011;54193;53.746;10.058;2023-05-17T03:59:34;12.25;;;2.08;;
67278;SDS011;54193;53.746;10.058;2023-05-17T04:02:20;9.00;;;1.70;;
67278;SDS011;54193;53.746;10.058;2023-05-17T04:05:05;12.43;;;2.07;;
67278;SDS011;54193;53.746;10.058;2023-05-17T04:07:52;8.77;;;1.90;;
67278;SDS011;54193;53.746;10.058;2023-05-17T04:10:38;10.32;;;1.83;;
67278;SDS011;54193;53.746;10.058;2023-05-17T04:13:26;7.10;;;1.58;;
67278;SDS011;54193;53.746;10.058;2023-05-17T04:16:11;10.65;;;1.90;;
67278;SDS011;54193;53.746;10.058;2023-05-17T04:18:58;10.48;;;2.05;;
67278;SDS011;54193;53.746;10.058;2023-05-17T04:21:44;9.82;;;1.80;;
67278;SDS011;54193;53.746;10.058;2023-05-17T04:24:30;16.03;;;2.07;;
67278;SDS011;54193;53.746;10.058;2023-05-17T04:27:16;11.52;;;1.92;;
67278;SDS011;54193;53.746;10.058;2023-05-17T04:30:01;13.18;;;1.80;;
67278;SDS011;54193;53.746;10.058;2023-05-17T04:32:48;5.77;;;1.60;;
67278;SDS011;54193;53.746;10.058;2023-05-17T04:35:34;10.10;;;1.60;;
67278;SDS011;54193;53.746;10.058;2023-05-17T04:38:22;9.57;;;1.80;;
67278;SDS011;54193;53.746;10.058;2023-05-17T04:41:10;9.07;;;1.80;;
67278;SDS011;54193;53.746;10.058;2023-05-17T04:43:56;10.73;;;1.98;;
67278;SDS011;54193;53.746;10.058;2023-05-17T04:46:42;9.32;;;1.70;;
67278;SDS011;54193;53.746;10.058;2023-05-17T04:49:28;10.07;;;1.70;;
67278;SDS011;54193;53.746;10.058;2023-05-17T04:52:13;9.07;;;1.70;;
67278;SDS011;54193;53.746;10.058;2023-05-17T04:54:59;12.70;;;1.88;;
67278;SDS011;54193;53.746;10.058;2023-05-17T04:57:45;9.05;;;1.58;;
67278;SDS011;54193;53.746;10.058;2023-05-17T05:00:30;11.47;;;2.00;;
67278;SDS011;54193;53.746;10.058;2023-05-17T05:03:17;14.35;;;1.67;;
67278;SDS011;54193;53.746;10.058;2023-05-17T05:06:02;8.07;;;1.95;;
67278;SDS011;54193;53.746;10.058;2023-05-17T05:08:48;10.75;;;1.77;;
67278;SDS011;54193;53.746;10.058;2023-05-17T05:11:34;12.20;;;2.22;;
67278;SDS011;54193;53.746;10.058;2023-05-17T05:14:20;12.68;;;2.10;;
67278;SDS011;54193;53.746;10.058;2023-05-17T05:17:06;13.52;;;1.90;;
67278;SDS011;54193;53.746;10.058;2023-05-17T05:19:52;10.87;;;1.60;;
67278;SDS011;54193;53.746;10.058;2023-05-17T05:22:38;10.52;;;1.83;;
67278;SDS011;54193;53.746;10.058;2023-05-17T05:25:25;9.93;;;1.85;;
67278;SDS011;54193;53.746;10.058;2023-05-17T05:28:11;13.50;;;1.90;;
67278;SDS011;54193;53.746;10.058;2023-05-17T05:30:57;10.50;;;1.73;;
67278;SDS011;54193;53.746;10.058;2023-05-17T05:33:44;10.55;;;1.77;;
67278;SDS011;54193;53.746;10.058;2023-05-17T05:36:30;12.50;;;1.95;;
67278;SDS011;54193;53.746;10.058;2023-05-17T05:39:15;9.15;;;1.90;;
67278;SDS011;54193;53.746;10.058;2023-05-17T05:42:02;10.15;;;1.50;;
67278;SDS011;54193;53.746;10.058;2023-05-17T05:44:48;8.93;;;1.80;;
67278;SDS011;54193;53.746;10.058;2023-05-17T05:47:34;13.33;;;1.67;;
67278;SDS011;54193;53.746;10.058;2023-05-17T05:50:19;7.50;;;1.70;;
67278;SDS011;54193;53.746;10.058;2023-05-17T05:53:05;10.23;;;1.73;;
67278;SDS011;54193;53.746;10.058;2023-05-17T05:55:51;11.27;;;2.33;;
67278;SDS011;54193;53.746;10.058;2023-05-17T05:58:36;10.48;;;1.50;;
67278;SDS011;54193;53.746;10.058;2023-05-17T06:01:22;9.80;;;1.60;;
67278;SDS011;54193;53.746;10.058;2023-05-17T06:04:09;9.90;;;1.65;;
67278;SDS011;54193;53.746;10.058;2023-05-17T06:06:55;8.13;;;1.23;;
67278;SDS011;54193;53.746;10.058;2023-05-17T06:09:41;8.60;;;1.40;;
67278;SDS011;54193;53.746;10.058;2023-05-17T06:12:27;10.25;;;1.80;;
67278;SDS011;54193;53.746;10.058;2023-05-17T06:15:13;8.40;;;1.37;;
67278;SDS011;54193;53.746;10.058;2023-05-17T06:17:58;6.78;;;1.63;;
67278;SDS011;54193;53.746;10.058;2023-05-17T06:20:44;7.32;;;1.35;;
67278;SDS011;54193;53.746;10.058;2023-05-17T06:23:30;11.93;;;2.30;;
67278;SDS011;54193;53.746;10.058;2023-05-17T06:26:16;7.93;;;1.52;;
67278;SDS011;54193;53.746;10.058;2023-05-17T06:29:01;7.50;;;1.48;;
67278;SDS011;54193;53.746;10.058;2023-05-17T06:31:48;8.15;;;1.23;;
67278;SDS011;54193;53.746;10.058;2023-05-17T06:34:33;8.00;;;0.98;;
67278;SDS011;54193;53.746;10.058;2023-05-17T06:37:19;8.98;;;1.23;;
67278;SDS011;54193;53.746;10.058;2023-05-17T06:40:05;8.18;;;1.88;;
67278;SDS011;54193;53.746;10.058;2023-05-17T06:42:52;8.10;;;1.43;;
67278;SDS011;54193;53.746;10.058;2023-05-17T06:45:38;9.02;;;1.40;;
67278;SDS011;54193;53.746;10.058;2023-05-17T06:48:24;10.10;;;1.40;;
67278;SDS011;54193;53.746;10.058;2023-05-17T06:51:10;8.33;;;1.87;;
67278;SDS011;54193;53.746;10.058;2023-05-17T06:53:56;9.40;;;1.40;;
67278;SDS011;54193;53.746;10.058;2023-05-17T06:56:41;9.45;;;1.58;;
67278;SDS011;54193;53.746;10.058;2023-05-17T06:59:27;7.63;;;1.52;;
67278;SDS011;54193;53.746;10.058;2023-05-17T07:02:13;10.13;;;1.35;;
67278;SDS011;54193;53.746;10.058;2023-05-17T07:04:59;9.50;;;1.58;;
67278;SDS011;54193;53.746;10.058;2023-05-17T07:07:44;9.30;;;1.63;;
67278;SDS011;54193;53.746;10.058;2023-05-17T07:10:30;7.47;;;1.43;;
67278;SDS011;54193;53.746;10.058;2023-05-17T07:13:15;8.73;;;1.33;;
67278;SDS011;54193;53.746;10.058;2023-05-17T07:16:01;8.40;;;1.70;;
67278;SDS011;54193;53.746;10.058;2023-05-17T07:18:47;8.50;;;1.53;;
67278;SDS011;54193;53.746;10.058;2023-05-17T07:21:33;7.05;;;1.40;;
67278;SDS011;54193;53.746;10.058;2023-05-17T07:24:19;7.75;;;1.60;;
67278;SDS011;54193;53.746;10.058;2023-05-17T07:27:04;10.43;;;1.92;;
67278;SDS011;54193;53.746;10.058;2023-05-17T07:29:50;7.00;;;1.50;;
67278;SDS011;54193;53.746;10.058;2023-05-17T07:32:36;12.00;;;1.90;;
67278;SDS011;54193;53.746;10.058;2023-05-17T07:35:21;7.70;;;1.50;;
67278;SDS011;54193;53.746;10.058;2023-05-17T07:38:07;10.47;;;1.53;;
67278;SDS011;54193;53.746;10.058;2023-05-17T07:40:54;7.45;;;1.33;;
67278;SDS011;54193;53.746;10.058;2023-05-17T07:43:40;7.65;;;1.30;;
67278;SDS011;54193;53.746;10.058;2023-05-17T07:46:26;8.00;;;1.60;;
67278;SDS011;54193;53.746;10.058;2023-05-17T07:49:12;7.57;;;1.48;;
67278;SDS011;54193;53.746;10.058;2023-05-17T07:51:58;5.82;;;1.17;;
67278;SDS011;54193;53.746;10.058;2023-05-17T07:54:43;11.15;;;2.03;;
67278;SDS011;54193;53.746;10.058;2023-05-17T07:57:29;5.82;;;2.13;;
67278;SDS011;54193;53.746;10.058;2023-05-17T08:00:15;7.85;;;2.03;;
67278;SDS011;54193;53.746;10.058;2023-05-17T08:03:03;6.25;;;1.48;;
67278;SDS011;54193;53.746;10.058;2023-05-17T08:05:49;9.03;;;1.83;;
67278;SDS011;54193;53.746;10.058;2023-05-17T08:08:34;7.28;;;1.85;;
67278;SDS011;54193;53.746;10.058;2023-05-17T08:11:20;12.05;;;1.63;;
67278;SDS011;54193;53.746;10.058;2023-05-17T08:14:06;7.47;;;1.70;;
67278;SDS011;54193;53.746;10.058;2023-05-17T08:16:51;5.80;;;1.55;;
67278;SDS011;54193;53.746;10.058;2023-05-17T08:19:37;5.93;;;1.40;;
67278;SDS011;54193;53.746;10.058;2023-05-17T08:22:23;7.90;;;1.33;;
67278;SDS011;54193;53.746;10.058;2023-05-17T08:25:08;7.32;;;1.63;;
67278;SDS011;54193;53.746;10.058;2023-05-17T08:27:54;5.63;;;1.48;;
67278;SDS011;54193;53.746;10.058;2023-05-17T08:30:40;7.65;;;1.40;;
67278;SDS011;54193;53.746;10.058;2023-05-17T08:33:26;4.73;;;1.23;;
67278;SDS011;54193;53.746;10.058;2023-05-17T08:36:11;6.90;;;1.58;;
67278;SDS011;54193;53.746;10.058;2023-05-17T08:38:57;9.27;;;1.90;;
67278;SDS011;54193;53.746;10.058;2023-05-17T08:41:44;7.33;;;1.20;;
67278;SDS011;54193;53.746;10.058;2023-05-17T08:44:33;7.30;;;1.40;;
67278;SDS011;54193;53.746;10.058;2023-05-17T08:47:19;9.50;;;1.70;;
67278;SDS011;54193;53.746;10.058;2023-05-17T08:50:14;8.10;;;1.50;;
67278;SDS011;54193;53.746;10.058;2023-05-17T08:52:59;9.10;;;1.33;;
67278;SDS011;54193;53.746;10.058;2023-05-17T08:55:46;7.18;;;1.48;;
67278;SDS011;54193;53.746;10.058;2023-05-17T08:58:34;6.82;;;1.35;;
67278;SDS011;54193;53.746;10.058;2023-05-17T09:01:23;13.23;;;1.60;;
67278;SDS011;54193;53.746;10.058;2023-05-17T09:04:10;14.05;;;2.15;;
67278;SDS011;54193;53.746;10.058;2023-05-17T09:06:56;9.88;;;1.80;;
67278;SDS011;54193;53.746;10.058;2023-05-17T09:09:41;6.87;;;1.40;;
67278;SDS011;54193;53.746;10.058;2023-05-17T09:12:27;6.30;;;1.40;;
67278;SDS011;54193;53.746;10.058;2023-05-17T09:15:17;9.27;;;1.50;;
67278;SDS011;54193;53.746;10.058;2023-05-17T09:18:04;7.70;;;1.70;;
67278;SDS011;54193;53.746;10.058;2023-05-17T09:20:50;10.70;;;1.58;;
67278;SDS011;54193;53.746;10.058;2023-05-17T09:23:36;9.50;;;1.73;;
67278;SDS011;54193;53.746;10.058;2023-05-17T09:26:22;8.20;;;1.80;;
67278;SDS011;54193;53.746;10.058;2023-05-17T09:29:12;12.00;;;1.57;;
67278;SDS011;54193;53.746;10.058;2023-05-17T09:32:12;6.47;;;1.73;;
67278;SDS011;54193;53.746;10.058;2023-05-17T09:35:01;7.13;;;1.50;;
67278;SDS011;54193;53.746;10.058;2023-05-17T09:37:47;8.43;;;1.53;;
67278;SDS011;54193;53.746;10.058;2023-05-17T09:40:36;8.07;;;1.52;;
67278;SDS011;54193;53.746;10.058;2023-05-17T09:43:24;4.43;;;1.25;;
67278;SDS011;54193;53.746;10.058;2023-05-17T09:46:10;9.32;;;1.65;;
67278;SDS011;54193;53.746;10.058;2023-05-17T09:48:56;10.38;;;1.70;;
67278;SDS011;54193;53.746;10.058;2023-05-17T09:51:43;5.78;;;1.33;;
67278;SDS011;54193;53.746;10.058;2023-05-17T09:54:30;9.57;;;1.90;;
67278;SDS011;54193;53.746;10.058;2023-05-17T09:57:22;8.83;;;1.87;;
67278;SDS011;54193;53.746;10.058;2023-05-17T10:00:09;7.95;;;1.75;;
67278;SDS011;54193;53.746;10.058;2023-05-17T10:02:56;9.57;;;1.77;;
67278;SDS011;54193;53.746;10.058;2023-05-17T10:05:43;5.65;;;2.08;;
67278;SDS011;54193;53.746;10.058;2023-05-17T10:08:37;7.68;;;1.98;;
67278;SDS011;54193;53.746;10.058;2023-05-17T10:11:28;10.27;;;2.27;;
67278;SDS011;54193;53.746;10.058;2023-05-17T10:17:07;8.82;;;1.90;;
67278;SDS011;54193;53.746;10.058;2023-05-17T10:19:56;8.10;;;2.17;;
67278;SDS011;54193;53.746;10.058;2023-05-17T10:22:42;15.55;;;1.90;;
67278;SDS011;54193;53.746;10.058;2023-05-17T10:25:28;9.73;;;2.10;;
67278;SDS011;54193;53.746;10.058;2023-05-17T10:28:15;7.68;;;1.48;;
67278;SDS011;54193;53.746;10.058;2023-05-17T10:31:02;6.83;;;1.60;;
67278;SDS011;54193;53.746;10.058;2023-05-17T10:33:49;7.82;;;2.10;;
67278;SDS011;54193;53.746;10.058;2023-05-17T10:36:36;7.80;;;2.30;;
67278;SDS011;54193;53.746;10.058;2023-05-17T10:39:22;7.53;;;2.53;;
67278;SDS011;54193;53.746;10.058;2023-05-17T10:42:08;6.35;;;2.10;;
67278;SDS011;54193;53.746;10.058;2023-05-17T10:44:55;6.95;;;2.10;;
67278;SDS011;54193;53.746;10.058;2023-05-17T10:47:41;7.40;;;1.95;;
67278;SDS011;54193;53.746;10.058;2023-05-17T10:50:27;5.53;;;1.52;;
67278;SDS011;54193;53.746;10.058;2023-05-17T10:53:13;5.63;;;1.70;;
67278;SDS011;54193;53.746;10.058;2023-05-17T10:55:59;6.63;;;1.58;;
67278;SDS011;54193;53.746;10.058;2023-05-17T10:58:45;9.00;;;2.10;;
67278;SDS011;54193;53.746;10.058;2023-05-17T11:04:54;4.85;;;1.70;;
67278;SDS011;54193;53.746;10.058;2023-05-17T11:07:40;6.97;;;1.67;;
67278;SDS011;54193;53.746;10.058;2023-05-17T11:10:26;8.25;;;1.63;;
67278;SDS011;54193;53.746;10.058;2023-05-17T11:13:21;4.93;;;1.70;;
67278;SDS011;54193;53.746;10.058;2023-05-17T11:16:09;5.88;;;1.70;;
67278;SDS011;54193;53.746;10.058;2023-05-17T11:19:05;7.28;;;1.83;;
67278;SDS011;54193;53.746;10.058;2023-05-17T11:21:52;5.63;;;1.67;;
67278;SDS011;54193;53.746;10.058;2023-05-17T11:24:38;8.32;;;1.70;;
67278;SDS011;54193;53.746;10.058;2023-05-17T11:27:28;6.37;;;1.90;;
67278;SDS011;54193;53.746;10.058;2023-05-17T11:30:22;4.95;;;1.70;;
67278;SDS011;54193;53.746;10.058;2023-05-17T11:33:08;6.20;;;1.67;;
67278;SDS011;54193;53.746;10.058;2023-05-17T11:35:54;7.80;;;1.90;;
67278;SDS011;54193;53.746;10.058;2023-05-17T11:38:40;8.57;;;1.90;;
67278;SDS011;54193;53.746;10.058;2023-05-17T11:41:26;7.20;;;1.70;;
67278;SDS011;54193;53.746;10.058;2023-05-17T11:44:11;5.88;;;1.70;;
67278;SDS011;54193;53.746;10.058;2023-05-17T11:47:01;7.03;;;1.60;;
67278;SDS011;54193;53.746;10.058;2023-05-17T11:49:49;6.40;;;1.92;;
67278;SDS011;54193;53.746;10.058;2023-05-17T11:52:38;7.97;;;2.58;;
67278;SDS011;54193;53.746;10.058;2023-05-17T11:55:25;6.00;;;2.40;;
67278;SDS011;54193;53.746;10.058;2023-05-17T11:58:12;8.40;;;2.90;;
67278;SDS011;54193;53.746;10.058;2023-05-17T12:00:59;8.77;;;2.20;;
67278;SDS011;54193;53.746;10.058;2023-05-17T12:03:45;7.30;;;2.10;;
67278;SDS011;54193;53.746;10.058;2023-05-17T12:06:31;8.30;;;2.47;;
67278;SDS011;54193;53.746;10.058;2023-05-17T12:09:20;7.05;;;1.95;;
67278;SDS011;54193;53.746;10.058;2023-05-17T12:12:06;6.18;;;1.60;;
67278;SDS011;54193;53.746;10.058;2023-05-17T12:14:52;7.60;;;2.20;;
67278;SDS011;54193;53.746;10.058;2023-05-17T12:17:39;5.82;;;1.58;;
67278;SDS011;54193;53.746;10.058;2023-05-17T12:20:30;4.72;;;1.35;;
67278;SDS011;54193;53.746;10.058;2023-05-17T12:23:21;7.27;;;1.90;;
67278;SDS011;54193;53.746;10.058;2023-05-17T12:26:22;8.48;;;2.13;;
67278;SDS011;54193;53.746;10.058;2023-05-17T12:29:08;9.25;;;2.50;;
67278;SDS011;54193;53.746;10.058;2023-05-17T12:31:55;6.90;;;2.10;;
67278;SDS011;54193;53.746;10.058;2023-05-17T12:34:41;8.98;;;2.03;;
67278;SDS011;54193;53.746;10.058;2023-05-17T12:37:27;5.53;;;1.58;;
67278;SDS011;54193;53.746;10.058;2023-05-17T12:40:12;6.70;;;1.58;;
67278;SDS011;54193;53.746;10.058;2023-05-17T12:43:01;5.75;;;1.77;;
67278;SDS011;54193;53.746;10.058;2023-05-17T12:45:51;8.80;;;1.60;;
67278;SDS011;54193;53.746;10.058;2023-05-17T12:48:38;6.78;;;1.90;;
67278;SDS011;54193;53.746;10.058;2023-05-17T12:51:25;6.90;;;1.73;;
67278;SDS011;54193;53.746;10.058;2023-05-17T12:54:12;6.13;;;2.40;;
67278;SDS011;54193;53.746;10.058;2023-05-17T12:57:09;6.93;;;1.83;;
67278;SDS011;54193;53.746;10.058;2023-05-17T12:59:56;7.20;;;2.10;;
67278;SDS011;54193;53.746;10.058;2023-05-17T13:02:41;8.20;;;2.05;;
67278;SDS011;54193;53.746;10.058;2023-05-17T13:05:27;6.13;;;2.00;;
67278;SDS011;54193;53.746;10.058;2023-05-17T13:08:19;6.68;;;2.00;;
67278;SDS011;54193;53.746;10.058;2023-05-17T13:13:52;11.00;;;1.77;;
67278;SDS011;54193;53.746;10.058;2023-05-17T13:16:38;5.43;;;1.60;;
67278;SDS011;54193;53.746;10.058;2023-05-17T13:19:24;4.87;;;1.70;;
67278;SDS011;54193;53.746;10.058;2023-05-17T13:22:10;6.93;;;1.75;;
67278;SDS011;54193;53.746;10.058;2023-05-17T13:24:55;5.53;;;1.90;;
67278;SDS011;54193;53.746;10.058;2023-05-17T13:27:41;6.43;;;1.87;;
67278;SDS011;54193;53.746;10.058;2023-05-17T13:30:30;6.75;;;1.50;;
67278;SDS011;54193;53.746;10.058;2023-05-17T13:33:17;3.60;;;1.40;;
67278;SDS011;54193;53.746;10.058;2023-05-17T13:36:03;7.35;;;1.67;;
67278;SDS011;54193;53.746;10.058;2023-05-17T13:38:49;5.70;;;1.52;;
67278;SDS011;54193;53.746;10.058;2023-05-17T13:41:34;7.03;;;2.05;;
67278;SDS011;54193;53.746;10.058;2023-05-17T13:44:20;8.20;;;2.42;;
67278;SDS011;54193;53.746;10.058;2023-05-17T13:47:05;7.90;;;2.77;;
67278;SDS011;54193;53.746;10.058;2023-05-17T13:49:51;9.45;;;2.17;;
67278;SDS011;54193;53.746;10.058;2023-05-17T13:52:37;5.50;;;1.80;;
67278;SDS011;54193;53.746;10.058;2023-05-17T13:55:22;6.33;;;2.10;;
67278;SDS011;54193;53.746;10.058;2023-05-17T13:58:08;6.63;;;1.55;;
67278;SDS011;54193;53.746;10.058;2023-05-17T14:00:54;8.25;;;1.90;;
67278;SDS011;54193;53.746;10.058;2023-05-17T14:03:40;5.55;;;1.80;;
67278;SDS011;54193;53.746;10.058;2023-05-17T14:06:26;7.72;;;2.30;;
67278;SDS011;54193;53.746;10.058;2023-05-17T14:09:11;6.25;;;2.15;;
67278;SDS011;54193;53.746;10.058;2023-05-17T14:11:57;7.72;;;2.40;;
67278;SDS011;54193;53.746;10.058;2023-05-17T14:14:43;9.23;;;2.10;;
67278;SDS011;54193;53.746;10.058;2023-05-17T14:17:29;10.52;;;1.90;;
67278;SDS011;54193;53.746;10.058;2023-05-17T14:20:15;7.57;;;1.92;;
67278;SDS011;54193;53.746;10.058;2023-05-17T14:23:01;8.17;;;1.90;;
67278;SDS011;54193;53.746;10.058;2023-05-17T14:25:47;4.88;;;1.50;;
67278;SDS011;54193;53.746;10.058;2023-05-17T14:28:33;6.18;;;1.48;;
67278;SDS011;54193;53.746;10.058;2023-05-17T14:31:23;9.65;;;2.45;;
67278;SDS011;54193;53.746;10.058;2023-05-17T14:34:08;6.78;;;1.88;;
67278;SDS011;54193;53.746;10.058;2023-05-17T14:36:54;6.18;;;1.92;;
67278;SDS011;54193;53.746;10.058;2023-05-17T14:39:40;9.02;;;1.90;;
67278;SDS011;54193;53.746;10.058;2023-05-17T14:42:25;5.50;;;1.73;;
67278;SDS011;54193;53.746;10.058;2023-05-17T14:45:12;6.10;;;1.88;;
67278;SDS011;54193;53.746;10.058;2023-05-17T14:47:58;8.05;;;1.88;;
67278;SDS011;54193;53.746;10.058;2023-05-17T14:50:43;5.73;;;1.70;;
67278;SDS011;54193;53.746;10.058;2023-05-17T14:53:29;6.95;;;1.50;;
67278;SDS011;54193;53.746;10.058;2023-05-17T14:56:14;6.15;;;1.70;;
67278;SDS011;54193;53.746;10.058;2023-05-17T14:59:01;5.07;;;1.80;;
67278;SDS011;54193;53.746;10.058;2023-05-17T15:01:47;8.32;;;2.13;;
67278;SDS011;54193;53.746;10.058;2023-05-17T15:04:32;7.65;;;2.10;;
67278;SDS011;54193;53.746;10.058;2023-05-17T15:07:18;8.13;;;2.05;;
67278;SDS011;54193;53.746;10.058;2023-05-17T15:10:04;4.97;;;1.80;;
67278;SDS011;54193;53.746;10.058;2023-05-17T15:12:50;8.13;;;2.42;;
67278;SDS011;54193;53.746;10.058;2023-05-17T15:15:36;10.30;;;1.95;;
67278;SDS011;54193;53.746;10.058;2023-05-17T15:18:22;7.10;;;2.20;;
67278;SDS011;54193;53.746;10.058;2023-05-17T15:21:08;8.13;;;2.55;;
67278;SDS011;54193;53.746;10.058;2023-05-17T15:23:54;9.35;;;2.50;;
67278;SDS011;54193;53.746;10.058;2023-05-17T15:26:40;7.43;;;1.70;;
67278;SDS011;54193;53.746;10.058;2023-05-17T15:29:26;6.40;;;1.70;;
67278;SDS011;54193;53.746;10.058;2023-05-17T15:32:13;6.32;;;1.85;;
67278;SDS011;54193;53.746;10.058;2023-05-17T15:34:58;5.55;;;1.50;;
67278;SDS011;54193;53.746;10.058;2023-05-17T15:37:44;6.43;;;1.40;;
67278;SDS011;54193;53.746;10.058;2023-05-17T15:40:30;5.57;;;1.40;;
67278;SDS011;54193;53.746;10.058;2023-05-17T15:43:15;6.57;;;1.40;;
67278;SDS011;54193;53.746;10.058;2023-05-17T15:46:01;4.53;;;1.40;;
67278;SDS011;54193;53.746;10.058;2023-05-17T15:48:47;6.03;;;1.60;;
67278;SDS011;54193;53.746;10.058;2023-05-17T15:51:32;6.38;;;1.60;;
67278;SDS011;54193;53.746;10.058;2023-05-17T15:54:18;7.03;;;1.52;;
67278;SDS011;54193;53.746;10.058;2023-05-17T15:57:04;6.13;;;1.60;;
67278;SDS011;54193;53.746;10.058;2023-05-17T15:59:50;5.38;;;1.30;;
67278;SDS011;54193;53.746;10.058;2023-05-17T16:02:36;8.43;;;1.52;;
67278;SDS011;54193;53.746;10.058;2023-05-17T16:05:21;12.00;;;1.43;;
67278;SDS011;54193;53.746;10.058;2023-05-17T16:08:08;5.50;;;1.52;;
67278;SDS011;54193;53.746;10.058;2023-05-17T16:10:57;6.43;;;1.52;;
67278;SDS011;54193;53.746;10.058;2023-05-17T16:13:42;5.23;;;1.60;;
67278;SDS011;54193;53.746;10.058;2023-05-17T16:16:28;6.30;;;1.85;;
67278;SDS011;54193;53.746;10.058;2023-05-17T16:19:14;5.80;;;1.20;;
67278;SDS011;54193;53.746;10.058;2023-05-17T16:21:59;7.18;;;1.50;;
67278;SDS011;54193;53.746;10.058;2023-05-17T16:24:45;6.03;;;1.40;;
67278;SDS011;54193;53.746;10.058;2023-05-17T16:27:31;6.18;;;1.63;;
67278;SDS011;54193;53.746;10.058;2023-05-17T16:30:17;6.20;;;1.30;;
67278;SDS011;54193;53.746;10.058;2023-05-17T16:33:03;5.27;;;1.50;;
67278;SDS011;54193;53.746;10.058;2023-05-17T16:35:48;9.00;;;1.60;;
67278;SDS011;54193;53.746;10.058;2023-05-17T16:38:34;6.45;;;1.35;;
67278;SDS011;54193;53.746;10.058;2023-05-17T16:41:20;5.43;;;1.40;;